createdAt,value
2018-03-02T00:00:49.286Z,26.20
2018-03-02T00:01:49.216Z,26.90
2018-03-02T00:02:49.150Z,26.60
2018-03-02T00:03:49.086Z,26.80
2018-03-02T00:04:49.019Z,26.80
2018-03-02T00:05:48.952Z,26.40
2018-03-02T00:06:48.885Z,25.70
2018-03-02T00:07:48.817Z,27.70
2018-03-02T00:08:48.751Z,26.30
2018-03-02T00:09:48.691Z,26.80
2018-03-02T00:10:48.617Z,27.00
2018-03-02T00:11:48.552Z,26.80
2018-03-02T00:12:48.486Z,26.90
2018-03-02T00:13:48.416Z,27.00
2018-03-02T00:14:48.353Z,26.70
2018-03-02T00:15:48.289Z,25.80
2018-03-02T00:16:48.219Z,27.00
2018-03-02T00:17:48.152Z,27.30
2018-03-02T00:18:48.086Z,26.90
2018-03-02T00:19:48.028Z,26.10
2018-03-02T00:20:47.953Z,26.80
2018-03-02T00:21:47.886Z,26.60
2018-03-02T00:22:47.820Z,25.70
2018-03-02T00:23:47.751Z,26.40
2018-03-02T00:24:47.686Z,25.70
2018-03-02T00:25:47.620Z,27.20
2018-03-02T00:26:47.551Z,26.40
2018-03-02T00:27:47.486Z,26.00
2018-03-02T00:28:47.422Z,26.00
2018-03-02T00:29:47.353Z,27.00
2018-03-02T00:30:47.286Z,26.50
2018-03-02T00:31:47.222Z,26.20
2018-03-02T00:32:47.153Z,26.90
2018-03-02T00:33:47.085Z,27.20
2018-03-02T00:34:47.023Z,27.50
2018-03-02T00:35:46.957Z,26.20
2018-03-02T00:36:46.886Z,25.80
2018-03-02T00:37:46.820Z,25.70
2018-03-02T00:38:46.756Z,26.50
2018-03-02T00:39:46.695Z,26.00
2018-03-02T00:40:46.628Z,26.30
2018-03-02T00:41:46.553Z,26.20
2018-03-02T00:42:46.487Z,26.80
2018-03-02T00:43:46.419Z,26.30
2018-03-02T00:44:46.358Z,25.40
2018-03-02T00:45:46.291Z,27.20
2018-03-02T00:46:46.220Z,27.00
2018-03-02T00:47:46.156Z,26.70
2018-03-02T00:48:46.090Z,26.60
2018-03-02T00:49:46.022Z,27.70
2018-03-02T00:50:45.953Z,26.30
2018-03-02T00:51:45.890Z,27.60
2018-03-02T00:52:45.824Z,25.60
2018-03-02T00:53:45.754Z,26.30
2018-03-02T00:54:45.687Z,28.20
2018-03-02T00:55:45.623Z,27.10
2018-03-02T00:56:45.557Z,25.80
2018-03-02T00:57:45.493Z,25.70
2018-03-02T00:58:45.423Z,26.50
2018-03-02T00:59:45.356Z,27.40
2018-03-02T01:00:45.289Z,26.60
2018-03-02T01:01:45.222Z,26.20
2018-03-02T01:02:45.158Z,27.40
2018-03-02T01:03:45.090Z,26.60
2018-03-02T01:04:45.023Z,27.40
2018-03-02T01:05:44.955Z,27.20
2018-03-02T01:06:44.889Z,26.60
2018-03-02T01:07:44.827Z,27.00
2018-03-02T01:08:44.758Z,27.10
2018-03-02T01:09:44.690Z,26.80
2018-03-02T01:10:44.623Z,27.80
2018-03-02T01:11:44.557Z,27.70
2018-03-02T01:12:44.491Z,26.60
2018-03-02T01:13:44.423Z,27.00
2018-03-02T01:14:44.356Z,26.90
2018-03-02T01:15:44.290Z,27.30
2018-03-02T01:16:44.225Z,27.50
2018-03-02T01:17:44.158Z,28.30
2018-03-02T01:18:44.091Z,26.80
2018-03-02T01:19:44.025Z,27.10
2018-03-02T01:20:43.959Z,27.60
2018-03-02T01:21:43.894Z,28.00
2018-03-02T01:22:43.824Z,27.00
2018-03-02T01:23:43.759Z,27.20
2018-03-02T01:24:43.692Z,26.60
2018-03-02T01:25:43.626Z,26.50
2018-03-02T01:26:43.560Z,27.50
2018-03-02T01:27:43.492Z,26.60
2018-03-02T01:28:43.426Z,26.10
2018-03-02T01:29:43.358Z,26.70
2018-03-02T01:30:43.292Z,26.00
2018-03-02T01:31:43.229Z,26.40
2018-03-02T01:32:43.161Z,27.20
2018-03-02T01:33:43.093Z,26.60
2018-03-02T01:34:43.026Z,27.40
2018-03-02T01:35:42.960Z,26.90
2018-03-02T01:36:42.895Z,28.70
2018-03-02T01:37:42.827Z,27.40
2018-03-02T01:38:42.762Z,27.30
2018-03-02T01:39:42.694Z,26.90
2018-03-02T01:40:42.629Z,27.10
2018-03-02T01:41:42.559Z,27.40
2018-03-02T01:42:42.492Z,27.70
2018-03-02T01:43:42.430Z,27.20
2018-03-02T01:44:42.360Z,27.20
2018-03-02T01:45:42.294Z,28.30
2018-03-02T01:46:42.226Z,26.50
2018-03-02T01:47:42.166Z,27.50
2018-03-02T01:48:42.099Z,27.70
2018-03-02T01:49:42.027Z,27.00
2018-03-02T01:50:41.962Z,28.00
2018-03-02T01:51:41.896Z,28.40
2018-03-02T01:52:41.828Z,28.00
2018-03-02T01:53:41.762Z,27.20
2018-03-02T01:54:41.699Z,27.70
2018-03-02T01:55:41.629Z,26.80
2018-03-02T01:56:41.561Z,26.80
2018-03-02T01:57:41.496Z,27.50
2018-03-02T01:58:41.429Z,27.60
2018-03-02T01:59:41.361Z,26.90
2018-03-02T02:00:41.319Z,26.70
2018-03-02T02:01:41.241Z,26.50
2018-03-02T02:02:41.168Z,27.50
2018-03-02T02:03:41.100Z,26.70
2018-03-02T02:04:41.029Z,27.60
2018-03-02T02:05:40.964Z,28.20
2018-03-02T02:06:40.898Z,28.50
2018-03-02T02:07:40.830Z,25.90
2018-03-02T02:08:40.764Z,27.20
2018-03-02T02:09:40.697Z,28.50
2018-03-02T02:10:40.627Z,27.90
2018-03-02T02:11:40.563Z,26.90
2018-03-02T02:12:40.496Z,27.80
2018-03-02T02:13:40.430Z,27.50
2018-03-02T02:14:40.362Z,28.60
2018-03-02T02:15:40.297Z,28.00
2018-03-02T02:16:40.229Z,28.10
2018-03-02T02:17:40.163Z,27.90
2018-03-02T02:18:40.094Z,28.80
2018-03-02T02:19:40.029Z,28.10
2018-03-02T02:20:39.965Z,27.90
2018-03-02T02:21:39.894Z,27.50
2018-03-02T02:22:39.829Z,28.70
2018-03-02T02:23:39.762Z,28.10
2018-03-02T02:24:39.697Z,28.90
2018-03-02T02:25:39.629Z,27.80
2018-03-02T02:26:39.566Z,28.30
2018-03-02T02:27:39.548Z,28.10
2018-03-02T02:28:39.430Z,29.50
2018-03-02T02:29:39.361Z,28.10
2018-03-02T02:30:39.293Z,27.80
2018-03-02T02:31:39.233Z,27.20
2018-03-02T02:32:39.163Z,27.40
2018-03-02T02:33:39.094Z,29.00
2018-03-02T02:34:39.028Z,27.70
2018-03-02T02:35:38.963Z,28.70
2018-03-02T02:36:38.900Z,27.90
2018-03-02T02:37:38.827Z,27.70
2018-03-02T02:38:38.761Z,27.40
2018-03-02T02:39:38.693Z,27.80
2018-03-02T02:40:38.625Z,28.80
2018-03-02T02:41:38.558Z,28.90
2018-03-02T02:42:38.492Z,27.60
2018-03-02T02:43:38.429Z,27.20
2018-03-02T02:44:38.363Z,27.80
2018-03-02T02:45:38.290Z,28.40
2018-03-02T02:46:38.225Z,27.90
2018-03-02T02:47:38.159Z,29.20
2018-03-02T02:48:38.091Z,26.80
2018-03-02T02:49:38.025Z,28.90
2018-03-02T02:50:37.963Z,29.40
2018-03-02T02:51:37.893Z,28.00
2018-03-02T02:52:37.826Z,29.30
2018-03-02T02:53:37.756Z,28.10
2018-03-02T02:54:37.692Z,28.90
2018-03-02T02:55:37.624Z,28.90
2018-03-02T02:56:37.556Z,29.00
2018-03-02T02:57:37.493Z,28.70
2018-03-02T02:58:37.421Z,28.50
2018-03-02T02:59:37.356Z,28.20
2018-03-02T03:00:37.289Z,27.90
2018-03-02T03:01:37.223Z,28.60
2018-03-02T03:02:37.157Z,28.00
2018-03-02T03:03:37.089Z,27.90
2018-03-02T03:04:37.022Z,27.50
2018-03-02T03:05:36.958Z,28.60
2018-03-02T03:06:36.887Z,29.60
2018-03-02T03:07:36.821Z,28.10
2018-03-02T03:08:36.755Z,27.80
2018-03-02T03:09:36.687Z,28.60
2018-03-02T03:10:36.619Z,28.20
2018-03-02T03:11:36.553Z,28.50
2018-03-02T03:12:36.484Z,29.40
2018-03-02T03:13:36.421Z,28.30
2018-03-02T03:14:36.353Z,29.60
2018-03-02T03:15:36.289Z,28.00
2018-03-02T03:16:36.219Z,29.70
2018-03-02T03:17:36.149Z,28.80
2018-03-02T03:18:36.084Z,29.40
2018-03-02T03:19:36.019Z,28.40
2018-03-02T03:20:35.954Z,27.40
2018-03-02T03:21:35.885Z,29.70
2018-03-02T03:22:35.817Z,28.60
2018-03-02T03:23:35.752Z,28.70
2018-03-02T03:24:35.684Z,28.50
2018-03-02T03:25:35.614Z,27.90
2018-03-02T03:26:35.553Z,29.50
2018-03-02T03:27:35.480Z,28.80
2018-03-02T03:28:35.416Z,28.90
2018-03-02T03:29:35.346Z,29.20
2018-03-02T03:30:35.282Z,28.00
2018-03-02T03:31:35.217Z,28.70
2018-03-02T03:32:35.150Z,28.50
2018-03-02T03:33:35.082Z,29.30
2018-03-02T03:34:35.010Z,29.30
2018-03-02T03:35:34.957Z,28.30
2018-03-02T03:36:34.877Z,28.80
2018-03-02T03:37:34.812Z,28.30
2018-03-02T03:38:34.748Z,29.20
2018-03-02T03:39:34.710Z,29.50
2018-03-02T03:40:34.619Z,29.90
2018-03-02T03:41:34.543Z,29.30
2018-03-02T03:42:34.477Z,28.10
2018-03-02T03:43:34.451Z,30.70
2018-03-02T03:44:34.341Z,29.10
2018-03-02T03:45:34.268Z,28.80
2018-03-02T03:46:34.210Z,29.30
2018-03-02T03:47:34.140Z,30.20
2018-03-02T03:48:34.075Z,29.60
2018-03-02T03:49:34.011Z,30.30
2018-03-02T03:50:33.939Z,28.70
2018-03-02T03:51:33.871Z,30.60
2018-03-02T03:52:33.806Z,29.70
2018-03-02T03:53:33.736Z,30.60
2018-03-02T03:54:33.673Z,30.00
2018-03-02T03:55:33.603Z,29.60
2018-03-02T03:56:33.537Z,29.50
2018-03-02T03:57:33.470Z,28.80
2018-03-02T03:58:33.404Z,30.20
2018-03-02T03:59:33.336Z,30.60
2018-03-02T04:00:33.271Z,30.70
2018-03-02T04:01:33.202Z,29.50
2018-03-02T04:02:33.134Z,30.40
2018-03-02T04:03:33.066Z,30.00
2018-03-02T04:04:33.006Z,30.50
2018-03-02T04:05:32.933Z,30.50
2018-03-02T04:06:32.866Z,31.00
2018-03-02T04:07:32.800Z,30.30
2018-03-02T04:08:32.732Z,30.00
2018-03-02T04:09:32.668Z,30.60
2018-03-02T04:10:32.598Z,31.00
2018-03-02T04:11:32.532Z,31.20
2018-03-02T04:12:32.470Z,30.50
2018-03-02T04:13:32.396Z,32.70
2018-03-02T04:14:32.329Z,29.50
2018-03-02T04:15:32.261Z,30.40
2018-03-02T04:16:32.194Z,31.20
2018-03-02T04:17:32.126Z,30.70
2018-03-02T04:18:32.060Z,30.20
2018-03-02T04:19:31.995Z,30.80
2018-03-02T04:20:31.926Z,31.50
2018-03-02T04:21:31.859Z,30.00
2018-03-02T04:22:31.789Z,30.60
2018-03-02T04:23:31.725Z,29.80
2018-03-02T04:24:31.657Z,31.30
2018-03-02T04:25:31.590Z,30.70
2018-03-02T04:26:31.523Z,30.40
2018-03-02T04:27:31.455Z,31.40
2018-03-02T04:28:31.387Z,30.80
2018-03-02T04:29:31.318Z,31.00
2018-03-02T04:30:31.254Z,31.00
2018-03-02T04:31:31.188Z,31.20
2018-03-02T04:32:31.121Z,30.70
2018-03-02T04:33:31.080Z,30.60
2018-03-02T04:34:30.982Z,31.10
2018-03-02T04:35:30.916Z,32.10
2018-03-02T04:36:30.850Z,30.70
2018-03-02T04:37:30.786Z,31.50
2018-03-02T04:38:30.713Z,31.20
2018-03-02T04:39:30.645Z,31.40
2018-03-02T04:40:30.579Z,31.60
2018-03-02T04:41:30.607Z,30.80
2018-03-02T04:42:30.444Z,31.40
2018-03-02T04:43:30.410Z,31.50
2018-03-02T04:44:30.308Z,29.60
2018-03-02T04:45:30.240Z,31.00
2018-03-02T04:46:30.174Z,31.00
2018-03-02T04:47:30.106Z,32.10
2018-03-02T04:48:30.039Z,31.60
2018-03-02T04:49:29.971Z,31.20
2018-03-02T04:50:29.924Z,32.20
2018-03-02T04:51:29.836Z,32.20
2018-03-02T04:52:29.771Z,32.50
2018-03-02T04:53:29.703Z,32.60
2018-03-02T04:54:29.641Z,32.00
2018-03-02T04:55:29.568Z,31.60
2018-03-02T04:56:29.595Z,31.90
2018-03-02T04:57:29.434Z,32.60
2018-03-02T04:58:29.364Z,31.80
2018-03-02T04:59:29.297Z,32.90
2018-03-02T05:00:29.232Z,31.50
2018-03-02T05:01:29.162Z,32.30
2018-03-02T05:02:29.094Z,33.30
2018-03-02T05:03:29.027Z,32.10
2018-03-02T05:04:28.963Z,32.60
2018-03-02T05:05:28.895Z,32.30
2018-03-02T05:06:28.826Z,33.20
2018-03-02T05:07:28.759Z,31.90
2018-03-02T05:08:28.691Z,33.40
2018-03-02T05:09:28.623Z,32.30
2018-03-02T05:10:28.556Z,32.00
2018-03-02T05:11:28.489Z,31.20
2018-03-02T05:12:28.420Z,32.90
2018-03-02T05:13:28.354Z,33.50
2018-03-02T05:14:28.284Z,32.10
2018-03-02T05:15:28.219Z,31.70
2018-03-02T05:16:28.152Z,32.00
2018-03-02T05:17:28.085Z,33.90
2018-03-02T05:18:28.016Z,33.10
2018-03-02T05:19:27.951Z,34.10
2018-03-02T05:20:27.883Z,33.40
2018-03-02T05:21:27.813Z,33.30
2018-03-02T05:22:27.753Z,33.90
2018-03-02T05:23:27.681Z,34.50
2018-03-02T05:24:27.626Z,32.70
2018-03-02T05:25:27.545Z,34.10
2018-03-02T05:26:27.480Z,33.20
2018-03-02T05:27:27.410Z,34.30
2018-03-02T05:28:27.341Z,33.20
2018-03-02T05:29:27.279Z,33.00
2018-03-02T05:30:27.206Z,32.30
2018-03-02T05:31:27.141Z,33.50
2018-03-02T05:32:27.074Z,33.60
2018-03-02T05:33:27.005Z,34.40
2018-03-02T05:34:26.937Z,33.70
2018-03-02T05:35:26.874Z,33.40
2018-03-02T05:36:26.804Z,33.00
2018-03-02T05:37:26.737Z,34.60
2018-03-02T05:38:26.667Z,34.10
2018-03-02T05:39:26.600Z,36.70
2018-03-02T05:40:26.533Z,35.00
2018-03-02T05:41:26.463Z,35.30
2018-03-02T05:42:26.397Z,34.10
2018-03-02T05:43:26.331Z,33.20
2018-03-02T05:44:26.268Z,35.30
2018-03-02T05:45:26.195Z,35.10
2018-03-02T05:46:26.132Z,33.60
2018-03-02T05:47:26.060Z,34.40
2018-03-02T05:48:25.992Z,34.80
2018-03-02T05:49:25.960Z,34.70
2018-03-02T05:50:25.857Z,35.10
2018-03-02T05:51:25.792Z,35.80
2018-03-02T05:52:25.723Z,36.30
2018-03-02T05:53:25.656Z,35.20
2018-03-02T05:54:25.588Z,34.20
2018-03-02T05:55:25.522Z,34.50
2018-03-02T05:56:25.453Z,34.50
2018-03-02T05:57:25.384Z,34.70
2018-03-02T05:58:25.318Z,35.30
2018-03-02T05:59:25.258Z,36.60
2018-03-02T06:00:25.183Z,34.40
2018-03-02T06:01:25.114Z,36.50
2018-03-02T06:02:25.048Z,34.20
2018-03-02T06:03:24.980Z,35.00
2018-03-02T06:04:24.912Z,34.70
2018-03-02T06:05:24.844Z,34.10
2018-03-02T06:06:24.778Z,34.60
2018-03-02T06:07:24.710Z,34.70
2018-03-02T06:08:24.644Z,34.80
2018-03-02T06:09:24.573Z,34.30
2018-03-02T06:10:24.506Z,35.70
2018-03-02T06:11:24.442Z,35.50
2018-03-02T06:12:24.376Z,35.30
2018-03-02T06:13:24.304Z,36.70
2018-03-02T06:14:24.239Z,34.90
2018-03-02T06:15:24.173Z,34.20
2018-03-02T06:16:24.104Z,34.60
2018-03-02T06:17:24.033Z,35.50
2018-03-02T06:18:23.966Z,34.60
2018-03-02T06:19:23.898Z,34.30
2018-03-02T06:20:23.834Z,36.20
2018-03-02T06:21:23.764Z,35.30
2018-03-02T06:22:23.697Z,35.50
2018-03-02T06:23:23.628Z,35.70
2018-03-02T06:24:23.562Z,36.30
2018-03-02T06:25:23.494Z,36.70
2018-03-02T06:26:23.430Z,35.90
2018-03-02T06:27:23.358Z,35.00
2018-03-02T06:28:23.290Z,35.70
2018-03-02T06:29:23.224Z,35.90
2018-03-02T06:30:23.155Z,37.00
2018-03-02T06:31:23.088Z,36.00
2018-03-02T06:32:23.024Z,36.60
2018-03-02T06:33:22.951Z,37.00
2018-03-02T06:34:22.884Z,36.50
2018-03-02T06:35:22.818Z,37.10
2018-03-02T06:36:22.748Z,36.40
2018-03-02T06:37:22.680Z,37.90
2018-03-02T06:38:22.660Z,38.80
2018-03-02T06:39:22.547Z,36.20
2018-03-02T06:40:22.477Z,36.60
2018-03-02T06:41:22.410Z,37.20
2018-03-02T06:42:22.342Z,38.80
2018-03-02T06:43:22.276Z,37.40
2018-03-02T06:44:22.209Z,36.60
2018-03-02T06:45:22.139Z,37.50
2018-03-02T06:46:22.075Z,36.90
2018-03-02T06:47:22.010Z,36.50
2018-03-02T06:48:21.937Z,37.60
2018-03-02T06:49:21.874Z,37.00
2018-03-02T06:50:21.801Z,36.50
2018-03-02T06:51:21.734Z,38.00
2018-03-02T06:52:21.668Z,37.50
2018-03-02T06:53:21.601Z,36.30
2018-03-02T06:54:21.530Z,35.80
2018-03-02T06:55:21.467Z,37.30
2018-03-02T06:56:21.398Z,37.50
2018-03-02T06:57:21.329Z,34.50
2018-03-02T06:58:21.262Z,37.10
2018-03-02T06:59:21.196Z,37.30
2018-03-02T07:00:21.127Z,36.20
2018-03-02T07:01:21.061Z,37.20
2018-03-02T07:02:20.994Z,36.40
2018-03-02T07:03:20.929Z,39.70
2018-03-02T07:04:20.858Z,38.30
2018-03-02T07:05:20.790Z,37.30
2018-03-02T07:06:20.723Z,36.60
2018-03-02T07:07:20.657Z,37.80
2018-03-02T07:08:20.590Z,37.10
2018-03-02T07:09:20.521Z,36.40
2018-03-02T07:10:20.470Z,36.20
2018-03-02T07:11:20.385Z,35.70
2018-03-02T07:12:20.320Z,36.30
2018-03-02T07:13:20.252Z,36.30
2018-03-02T07:14:20.186Z,37.30
2018-03-02T07:15:20.117Z,37.60
2018-03-02T07:16:20.049Z,36.90
2018-03-02T07:17:19.984Z,36.80
2018-03-02T07:18:19.914Z,36.20
2018-03-02T07:19:19.846Z,36.20
2018-03-02T07:20:19.786Z,36.50
2018-03-02T07:21:19.718Z,36.90
2018-03-02T07:22:19.649Z,38.00
2018-03-02T07:23:19.579Z,37.10
2018-03-02T07:24:19.532Z,38.30
2018-03-02T07:25:19.445Z,39.30
2018-03-02T07:26:19.378Z,37.90
2018-03-02T07:27:19.312Z,37.30
2018-03-02T07:28:19.247Z,36.50
2018-03-02T07:29:19.179Z,37.50
2018-03-02T07:30:19.110Z,38.70
2018-03-02T07:31:19.044Z,38.40
2018-03-02T07:32:18.978Z,38.50
2018-03-02T07:33:18.909Z,37.60
2018-03-02T07:34:18.843Z,37.60
2018-03-02T07:35:18.774Z,38.40
2018-03-02T07:36:18.710Z,38.20
2018-03-02T07:37:18.641Z,38.30
2018-03-02T07:38:18.578Z,37.10
2018-03-02T07:39:18.508Z,36.90
2018-03-02T07:40:18.445Z,39.20
2018-03-02T07:41:18.375Z,37.90
2018-03-02T07:42:18.309Z,37.00
2018-03-02T07:43:18.240Z,37.10
2018-03-02T07:44:18.187Z,37.80
2018-03-02T07:45:18.098Z,38.60
2018-03-02T07:46:18.041Z,37.90
2018-03-02T07:47:17.972Z,37.60
2018-03-02T07:48:17.908Z,38.00
2018-03-02T07:49:17.838Z,38.60
2018-03-02T07:50:17.773Z,38.80
2018-03-02T07:51:17.706Z,38.40
2018-03-02T07:52:17.642Z,37.60
2018-03-02T07:53:17.573Z,38.30
2018-03-02T07:54:17.506Z,36.40
2018-03-02T07:55:17.444Z,38.30
2018-03-02T07:56:17.373Z,36.70
2018-03-02T07:57:17.311Z,38.80
2018-03-02T07:58:17.244Z,37.50
2018-03-02T07:59:17.174Z,38.10
2018-03-02T08:00:17.108Z,39.10
2018-03-02T08:01:17.044Z,38.30
2018-03-02T08:02:16.973Z,38.20
2018-03-02T08:03:16.927Z,37.40
2018-03-02T08:04:16.898Z,38.20
2018-03-02T08:05:16.772Z,38.70
2018-03-02T08:06:16.707Z,39.40
2018-03-02T08:07:16.643Z,40.80
2018-03-02T08:08:16.569Z,39.80
2018-03-02T08:09:16.509Z,38.30
2018-03-02T08:10:16.447Z,38.20
2018-03-02T08:11:16.375Z,39.80
2018-03-02T08:12:16.307Z,38.60
2018-03-02T08:13:16.245Z,39.10
2018-03-02T08:14:16.227Z,38.50
2018-03-02T08:15:16.108Z,38.60
2018-03-02T08:16:16.046Z,39.20
2018-03-02T08:17:15.978Z,39.20
2018-03-02T08:18:15.907Z,38.60
2018-03-02T08:19:15.846Z,39.20
2018-03-02T08:20:15.782Z,39.20
2018-03-02T08:21:15.710Z,40.40
2018-03-02T08:22:15.645Z,40.70
2018-03-02T08:23:15.576Z,40.10
2018-03-02T08:24:15.512Z,41.00
2018-03-02T08:25:15.444Z,38.50
2018-03-02T08:26:15.376Z,39.90
2018-03-02T08:27:15.314Z,39.10
2018-03-02T08:28:15.246Z,39.10
2018-03-02T08:29:15.178Z,39.20
2018-03-02T08:30:15.110Z,40.00
2018-03-02T08:31:15.046Z,39.80
2018-03-02T08:32:14.980Z,39.50
2018-03-02T08:33:14.914Z,39.30
2018-03-02T08:34:14.846Z,40.10
2018-03-02T08:35:14.781Z,40.60
2018-03-02T08:36:14.718Z,40.50
2018-03-02T08:37:14.646Z,39.60
2018-03-02T08:38:14.586Z,40.10
2018-03-02T08:39:14.515Z,39.40
2018-03-02T08:40:14.449Z,40.60
2018-03-02T08:41:14.386Z,38.50
2018-03-02T08:42:14.315Z,38.40
2018-03-02T08:43:14.252Z,39.40
2018-03-02T08:44:14.186Z,42.40
2018-03-02T08:45:14.116Z,41.00
2018-03-02T08:46:14.055Z,39.40
2018-03-02T08:47:13.988Z,40.30
2018-03-02T08:48:13.921Z,39.30
2018-03-02T08:49:13.853Z,37.80
2018-03-02T08:50:13.849Z,39.30
2018-03-02T08:51:13.721Z,39.90
2018-03-02T08:52:13.659Z,37.90
2018-03-02T08:53:13.589Z,41.40
2018-03-02T08:54:13.525Z,38.10
2018-03-02T08:55:13.462Z,39.90
2018-03-02T08:56:13.393Z,39.90
2018-03-02T08:57:13.324Z,40.30
2018-03-02T08:58:13.262Z,40.70
2018-03-02T08:59:13.205Z,39.40
2018-03-02T09:00:13.131Z,38.70
2018-03-02T09:01:13.067Z,39.10
2018-03-02T09:02:12.998Z,40.10
2018-03-02T09:03:12.932Z,40.70
2018-03-02T09:04:12.866Z,42.80
2018-03-02T09:05:12.797Z,39.50
2018-03-02T09:06:12.732Z,41.10
2018-03-02T09:07:12.668Z,40.20
2018-03-02T09:08:12.605Z,40.80
2018-03-02T09:09:12.533Z,39.90
2018-03-02T09:10:12.469Z,41.60
2018-03-02T09:11:12.405Z,39.70
2018-03-02T09:12:12.337Z,41.50
2018-03-02T09:13:12.272Z,40.10
2018-03-02T09:14:12.206Z,39.50
2018-03-02T09:15:12.140Z,39.00
2018-03-02T09:16:12.073Z,41.50
2018-03-02T09:17:12.010Z,39.30
2018-03-02T09:18:11.943Z,41.60
2018-03-02T09:19:11.878Z,41.80
2018-03-02T09:20:11.812Z,40.90
2018-03-02T09:21:11.750Z,41.90
2018-03-02T09:22:11.684Z,42.20
2018-03-02T09:23:11.620Z,41.80
2018-03-02T09:24:11.548Z,42.10
2018-03-02T09:25:11.483Z,41.40
2018-03-02T09:26:11.420Z,42.70
2018-03-02T09:27:11.355Z,40.90
2018-03-02T09:28:11.284Z,42.00
2018-03-02T09:29:11.221Z,42.50
2018-03-02T09:30:11.179Z,41.40
2018-03-02T09:31:11.094Z,41.40
2018-03-02T09:32:11.027Z,41.00
2018-03-02T09:33:10.959Z,41.80
2018-03-02T09:34:10.899Z,43.10
2018-03-02T09:35:10.834Z,42.80
2018-03-02T09:36:10.764Z,42.50
2018-03-02T09:37:10.690Z,43.70
2018-03-02T09:38:10.634Z,42.40
2018-03-02T09:39:10.574Z,43.10
2018-03-02T09:40:10.510Z,41.90
2018-03-02T09:41:10.445Z,43.80
2018-03-02T09:42:10.375Z,42.10
2018-03-02T09:43:10.311Z,42.50
2018-03-02T09:44:10.252Z,41.50
2018-03-02T09:45:10.181Z,43.50
2018-03-02T09:46:10.116Z,43.50
2018-03-02T09:47:10.053Z,43.40
2018-03-02T09:48:09.988Z,44.10
2018-03-02T09:49:09.921Z,44.10
2018-03-02T09:50:09.856Z,43.50
2018-03-02T09:51:09.792Z,42.20
2018-03-02T09:52:09.728Z,42.30
2018-03-02T09:53:09.662Z,42.50
2018-03-02T09:54:09.600Z,43.90
2018-03-02T09:55:09.536Z,42.60
2018-03-02T09:56:09.473Z,42.00
2018-03-02T09:57:09.416Z,43.20
2018-03-02T09:58:09.346Z,43.70
2018-03-02T09:59:09.278Z,43.10
2018-03-02T10:00:09.214Z,43.70
2018-03-02T10:01:09.153Z,42.70
2018-03-02T10:02:09.091Z,42.80
2018-03-02T10:03:09.022Z,42.30
2018-03-02T10:04:08.958Z,43.30
2018-03-02T10:05:08.893Z,43.30
2018-03-02T10:06:08.828Z,43.90
2018-03-02T10:07:08.770Z,42.90
2018-03-02T10:08:08.702Z,43.90
2018-03-02T10:09:08.641Z,42.70
2018-03-02T10:10:08.574Z,44.90
2018-03-02T10:11:08.511Z,43.80
2018-03-02T10:12:08.448Z,45.10
2018-03-02T10:13:08.383Z,43.60
2018-03-02T10:14:08.326Z,44.50
2018-03-02T10:15:08.262Z,43.20
2018-03-02T10:16:08.195Z,42.50
2018-03-02T10:17:08.130Z,44.20
2018-03-02T10:18:08.085Z,46.10
2018-03-02T10:19:08.007Z,45.20
2018-03-02T10:20:07.942Z,44.60
2018-03-02T10:21:07.878Z,44.30
2018-03-02T10:22:07.827Z,45.80
2018-03-02T10:23:07.753Z,44.60
2018-03-02T10:24:07.690Z,44.30
2018-03-02T10:25:07.628Z,44.60
2018-03-02T10:26:07.564Z,44.20
2018-03-02T10:27:07.501Z,44.50
2018-03-02T10:28:07.442Z,42.70
2018-03-02T10:29:07.374Z,43.70
2018-03-02T10:30:07.312Z,44.00
2018-03-02T10:31:07.250Z,45.30
2018-03-02T10:32:07.187Z,43.20
2018-03-02T10:33:07.124Z,44.10
2018-03-02T10:34:07.061Z,45.30
2018-03-02T10:35:06.998Z,43.90
2018-03-02T10:36:06.935Z,44.10
2018-03-02T10:37:06.871Z,43.70
2018-03-02T10:38:06.808Z,43.50
2018-03-02T10:39:06.748Z,43.70
2018-03-02T10:40:06.685Z,45.10
2018-03-02T10:41:06.625Z,48.60
2018-03-02T10:42:06.560Z,45.80
2018-03-02T10:43:06.496Z,43.20
2018-03-02T10:44:06.436Z,46.40
2018-03-02T10:45:06.373Z,49.80
2018-03-02T10:46:06.309Z,49.90
2018-03-02T10:47:06.248Z,47.60
2018-03-02T10:48:06.186Z,45.50
2018-03-02T10:49:06.122Z,44.10
2018-03-02T10:50:06.058Z,42.80
2018-03-02T10:51:05.996Z,45.10
2018-03-02T10:52:05.933Z,45.10
2018-03-02T10:53:05.873Z,44.20
2018-03-02T10:54:05.825Z,43.80
2018-03-02T10:55:05.747Z,42.60
2018-03-02T10:56:05.685Z,42.80
2018-03-02T10:57:05.623Z,43.50
2018-03-02T10:58:05.562Z,43.70
2018-03-02T10:59:05.497Z,44.90
2018-03-02T11:00:05.434Z,44.30
2018-03-02T11:01:05.369Z,44.20
2018-03-02T11:02:05.307Z,44.00
2018-03-02T11:03:05.245Z,45.10
2018-03-02T11:04:05.183Z,46.00
2018-03-02T11:05:05.119Z,42.70
2018-03-02T11:06:05.056Z,44.20
2018-03-02T11:07:04.995Z,44.90
2018-03-02T11:08:04.933Z,44.40
2018-03-02T11:09:04.870Z,44.20
2018-03-02T11:10:04.808Z,43.10
2018-03-02T11:11:04.745Z,43.30
2018-03-02T11:12:04.683Z,42.20
2018-03-02T11:13:04.622Z,41.50
2018-03-02T11:14:04.561Z,43.40
2018-03-02T11:15:04.495Z,43.00
2018-03-02T11:16:04.436Z,43.80
2018-03-02T11:17:04.370Z,43.80
2018-03-02T11:18:04.309Z,43.50
2018-03-02T11:19:04.253Z,42.80
2018-03-02T11:20:04.191Z,44.50
2018-03-02T11:21:04.126Z,43.80
2018-03-02T11:22:04.061Z,44.60
2018-03-02T11:23:03.997Z,43.50
2018-03-02T11:24:03.935Z,43.90
2018-03-02T11:25:03.873Z,45.10
2018-03-02T11:26:03.811Z,43.70
2018-03-02T11:27:03.750Z,45.90
2018-03-02T11:28:03.688Z,44.90
2018-03-02T11:29:03.628Z,45.30
2018-03-02T11:30:03.562Z,44.60
2018-03-02T11:31:03.500Z,44.90
2018-03-02T11:32:03.438Z,44.10
2018-03-02T11:33:03.374Z,43.50
2018-03-02T11:34:03.314Z,42.10
2018-03-02T11:35:03.250Z,43.00
2018-03-02T11:36:03.191Z,42.50
2018-03-02T11:37:03.130Z,41.90
2018-03-02T11:38:03.062Z,42.40
2018-03-02T11:39:03.000Z,42.40
2018-03-02T11:40:02.937Z,42.90
2018-03-02T11:41:02.875Z,41.80
2018-03-02T11:42:02.821Z,42.70
2018-03-02T11:43:02.748Z,42.70
2018-03-02T11:44:02.686Z,42.30
2018-03-02T11:45:02.621Z,41.90
2018-03-02T11:46:02.562Z,42.90
2018-03-02T11:47:02.545Z,42.40
2018-03-02T11:48:02.434Z,42.20
2018-03-02T11:49:02.371Z,42.70
2018-03-02T11:50:02.310Z,41.30
2018-03-02T11:51:02.248Z,40.80
2018-03-02T11:52:02.185Z,42.20
2018-03-02T11:53:02.125Z,41.60
2018-03-02T11:54:02.057Z,41.60
2018-03-02T11:55:01.995Z,42.90
2018-03-02T11:56:01.932Z,43.10
2018-03-02T11:57:01.869Z,41.80
2018-03-02T11:58:01.806Z,41.30
2018-03-02T11:59:01.744Z,42.20
2018-03-02T12:00:01.683Z,40.40
2018-03-02T12:01:01.619Z,41.70
2018-03-02T12:02:01.557Z,42.00
2018-03-02T12:03:01.493Z,43.20
2018-03-02T12:04:01.431Z,41.70
2018-03-02T12:05:01.366Z,41.30
2018-03-02T12:06:01.304Z,41.90
2018-03-02T12:07:01.242Z,41.40
2018-03-02T12:08:01.179Z,42.60
2018-03-02T12:09:01.114Z,40.10
2018-03-02T12:10:01.054Z,40.20
2018-03-02T12:11:00.996Z,40.20
2018-03-02T12:12:00.927Z,41.20
2018-03-02T12:13:00.862Z,40.30
2018-03-02T12:14:00.800Z,40.20
2018-03-02T12:15:00.738Z,40.70
2018-03-02T12:16:00.675Z,40.40
2018-03-02T12:17:00.613Z,41.90
2018-03-02T12:18:00.550Z,40.90
2018-03-02T12:19:00.486Z,39.70
2018-03-02T12:20:00.423Z,40.50
2018-03-02T12:21:00.359Z,40.80
2018-03-02T12:22:00.295Z,40.00
2018-03-02T12:23:00.236Z,40.20
2018-03-02T12:24:00.172Z,41.30
2018-03-02T12:25:00.105Z,40.20
2018-03-02T12:26:00.042Z,40.70
2018-03-02T12:26:59.980Z,40.70
2018-03-02T12:27:59.917Z,40.20
2018-03-02T12:28:59.857Z,40.10
2018-03-02T12:29:59.793Z,40.20
2018-03-02T12:30:59.780Z,38.90
2018-03-02T12:31:59.663Z,40.10
2018-03-02T12:32:59.599Z,39.90
2018-03-02T12:33:59.535Z,40.30
2018-03-02T12:34:59.477Z,39.40
2018-03-02T12:35:59.409Z,40.80
2018-03-02T12:36:59.347Z,40.30
2018-03-02T12:37:59.282Z,39.60
2018-03-02T12:38:59.219Z,40.60
2018-03-02T12:39:59.168Z,41.20
2018-03-02T12:40:59.098Z,40.00
2018-03-02T12:41:59.040Z,40.50
2018-03-02T12:42:58.970Z,38.80
2018-03-02T12:43:58.902Z,40.20
2018-03-02T12:44:58.841Z,41.10
2018-03-02T12:45:58.776Z,38.70
2018-03-02T12:46:58.712Z,40.00
2018-03-02T12:47:58.649Z,40.30
2018-03-02T12:48:58.586Z,40.00
2018-03-02T12:49:58.523Z,40.50
2018-03-02T12:50:58.467Z,40.90
2018-03-02T12:51:58.397Z,39.90